メインページ
METAR-TAF:

METAR-TAF

空港 :

ルクセンブルク-フィンデル空港

ルクセンブルク, ルクセンブルク

緯度: 49-37N, 経度: 006-13E, 海抜: 376m

現時点の気象観測

当レポートは27分前の10:20(UTC)に作成
南東の風 7kt、東/南東からの間で変化する
気温 19°C
湿度 60%
気圧 1014 hPa
視程10km以上

METAR: ELLX 211020Z AUTO 14007KT 110V190 9999 NCD 19/11 Q1014 NOSIG

時間: 12:47 (10:47 UTC)

予報

当レポートは5時間47分前の05:00(UTC)に作成
予報は21日の 06時(UTC)から 22日の 12時(UTC)まで有効
北東の風 11kt
視程10km以上
1,500メートル以下は雲なし、積乱雲なし
21日の 07時(UTC)から 21日の 09時(UTC)まで徐々に
東/南東の風 7kt
高度3500ftの雲は散在している
21日の 13時(UTC)から 21日の 22時(UTC)まで一時的に
視程: 7000m
高度3000ftの雲は散在している, 塔状積雲.
高度3500ftの千切れ雲あり
弱いにわか雨
確率 30% :
21日の 15時(UTC)から 21日の 20時(UTC)まで一時的に
視程: 4000m
高度3000ftの千切れ雲あり, 積乱雲.
激しい雷雨, 雨
22日の 02時(UTC)から 22日の 04時(UTC)まで徐々に
南西の風 5kt
視程: 5000m
高度700ftの雲は散在している
22日の 07時(UTC)から 22日の 09時(UTC)まで徐々に
視程10km以上
高度3000ftの雲はほとんどない, 塔状積雲.
高度3500ftの雲は散在している

TAF: ELLX 210500Z 2106/2212 05011KT CAVOK BECMG 2107/2109 12007KT SCT035 TEMPO 2113/2122 7000 -SHRA SCT030TCU BKN035 PROB30 TEMPO 2115/2120 4000 TSRA BKN030CB BECMG 2202/2204 22005KT 5000 BR SCT007 BECMG 2207/2209 9999 FEW030TCU SCT035

4,000以上の空港の気象観測と天気予報(METAR報とTAF報)

利用可能な観測所は地図上に黄色い丸と赤い丸で示す。

丸の上にカーソルを重ねると観測所名を参照できる。

次にクリックすると気象観測と天気予報を参照できる。

マップの切り替え:黒色「×」印の緑ボタンをクリックして拡大、「-」印の緑ボタンをクリックして縮小、緑色の三角印をクリックして隣りの地図に切り替え


METAR-TAF: